createdAt,value
2018-03-25T00:00:01.992Z,22.50
2018-03-25T00:02:30.209Z,22.50
2018-03-25T00:04:57.681Z,22.50
2018-03-25T00:07:25.158Z,22.50
2018-03-25T00:09:52.622Z,22.50
2018-03-25T00:12:20.089Z,22.50
2018-03-25T00:14:48.313Z,22.60
2018-03-25T00:17:15.775Z,22.50
2018-03-25T00:19:43.272Z,22.50
2018-03-25T00:22:10.730Z,22.50
2018-03-25T00:24:38.189Z,22.50
2018-03-25T00:27:05.643Z,22.50
2018-03-25T00:29:33.097Z,22.50
2018-03-25T00:32:00.554Z,22.50
2018-03-25T00:34:28.015Z,22.50
2018-03-25T00:36:55.475Z,22.50
2018-03-25T00:39:22.940Z,22.50
2018-03-25T00:41:51.165Z,22.60
2018-03-25T00:44:18.630Z,22.60
2018-03-25T00:46:46.089Z,22.60
2018-03-25T00:49:13.549Z,22.60
2018-03-25T00:51:41.018Z,22.50
2018-03-25T00:54:08.487Z,22.50
2018-03-25T00:56:35.957Z,22.50
2018-03-25T00:59:03.405Z,22.40
2018-03-25T01:01:30.870Z,22.40
2018-03-25T01:03:58.319Z,22.50
2018-03-25T01:06:25.785Z,22.50
2018-03-25T01:08:53.959Z,22.50
2018-03-25T01:11:22.188Z,21.70
2018-03-25T01:13:49.648Z,21.70
2018-03-25T01:16:17.126Z,21.00
2018-03-25T01:18:45.345Z,21.40
2018-03-25T01:21:12.806Z,21.40
2018-03-25T01:23:40.258Z,21.60
2018-03-25T01:26:08.493Z,22.00
2018-03-25T01:28:35.976Z,21.90
2018-03-25T01:31:03.429Z,22.10
2018-03-25T01:33:30.889Z,22.20
2018-03-25T01:35:58.350Z,22.20
2018-03-25T01:38:25.801Z,22.30
2018-03-25T01:40:53.261Z,22.40
2018-03-25T01:43:20.717Z,22.50
2018-03-25T01:45:48.177Z,22.50
2018-03-25T01:48:15.631Z,22.60
2018-03-25T01:50:43.096Z,22.60
2018-03-25T01:53:10.556Z,22.50
2018-03-25T01:55:38.774Z,22.50
2018-03-25T01:58:06.246Z,22.50
2018-03-25T02:00:34.479Z,17.80
2018-03-25T02:03:02.708Z,16.50
2018-03-25T02:05:30.161Z,16.40
2018-03-25T02:07:57.657Z,15.70
2018-03-25T02:10:25.908Z,15.10
2018-03-25T02:12:53.378Z,15.20
2018-03-25T02:15:20.837Z,14.60
2018-03-25T02:17:48.297Z,14.40
2018-03-25T02:20:16.533Z,14.00
2018-03-25T02:22:44.002Z,14.00
2018-03-25T02:25:11.445Z,13.70
2018-03-25T02:27:38.922Z,13.70
2018-03-25T02:30:06.402Z,13.50
2018-03-25T02:32:34.668Z,13.80
2018-03-25T02:35:02.131Z,13.80
2018-03-25T02:37:29.592Z,13.70
2018-03-25T02:39:57.045Z,13.30
2018-03-25T02:42:24.519Z,13.20
2018-03-25T02:44:52.756Z,13.20
2018-03-25T02:47:20.228Z,13.20
2018-03-25T02:49:47.703Z,13.20
2018-03-25T02:52:15.934Z,12.90
2018-03-25T02:54:43.398Z,12.90
2018-03-25T02:57:10.866Z,12.70
2018-03-25T02:59:38.349Z,12.60
2018-03-25T03:02:05.798Z,12.70
2018-03-25T03:04:33.258Z,12.90
2018-03-25T03:07:00.711Z,13.00
2018-03-25T03:09:28.174Z,12.90
2018-03-25T03:11:55.622Z,12.70
2018-03-25T03:14:23.865Z,12.60
2018-03-25T03:16:52.341Z,12.60
2018-03-25T03:19:19.817Z,12.70
2018-03-25T03:21:47.274Z,12.70
2018-03-25T03:24:14.745Z,12.60
2018-03-25T03:26:42.217Z,12.40
2018-03-25T03:29:09.693Z,12.20
2018-03-25T03:31:37.910Z,12.10
2018-03-25T03:34:06.936Z,12.30
2018-03-25T03:36:34.396Z,12.30
2018-03-25T03:42:04.360Z,12.50
2018-03-25T03:44:31.817Z,12.50
2018-03-25T03:46:59.280Z,12.20
2018-03-25T03:49:27.518Z,12.00
2018-03-25T03:51:54.973Z,12.00
2018-03-25T03:54:22.433Z,11.80
2018-03-25T03:56:49.882Z,11.80
2018-03-25T03:59:17.349Z,11.80
2018-03-25T04:01:44.813Z,12.10
2018-03-25T04:04:12.260Z,12.00
2018-03-25T04:06:39.718Z,12.10
2018-03-25T04:09:07.222Z,12.20
2018-03-25T04:11:35.434Z,12.10
2018-03-25T04:14:02.887Z,12.10
2018-03-25T04:16:31.105Z,12.30
2018-03-25T04:18:59.329Z,12.10
2018-03-25T04:21:27.014Z,12.10
2018-03-25T04:23:54.469Z,11.90
2018-03-25T04:26:21.931Z,11.70
2018-03-25T04:28:49.386Z,11.60
2018-03-25T04:31:16.854Z,11.60
2018-03-25T04:33:44.306Z,11.60
2018-03-25T04:36:11.770Z,11.50
2018-03-25T04:38:39.225Z,11.70
2018-03-25T04:41:06.685Z,11.60
2018-03-25T04:43:34.146Z,11.60
2018-03-25T04:46:01.605Z,11.70
2018-03-25T04:48:29.077Z,11.60
2018-03-25T04:50:57.304Z,11.70
2018-03-25T04:53:24.768Z,11.60
2018-03-25T04:55:52.242Z,11.70
2018-03-25T04:58:19.697Z,11.70
2018-03-25T05:00:47.166Z,11.60
2018-03-25T05:03:14.629Z,11.50
2018-03-25T05:05:42.092Z,11.40
2018-03-25T05:08:09.541Z,11.40
2018-03-25T05:10:37.004Z,11.50
2018-03-25T05:13:04.462Z,11.50
2018-03-25T05:15:31.918Z,11.60
2018-03-25T05:17:59.372Z,11.60
2018-03-25T05:20:26.864Z,11.90
2018-03-25T05:22:54.322Z,11.80
2018-03-25T05:25:21.799Z,11.60
2018-03-25T05:27:49.270Z,11.50
2018-03-25T05:30:16.735Z,11.50
2018-03-25T05:32:44.191Z,11.50
2018-03-25T05:35:11.678Z,11.40
2018-03-25T05:37:39.129Z,11.40
2018-03-25T05:40:06.581Z,11.40
2018-03-25T05:42:34.053Z,11.60
2018-03-25T05:45:01.517Z,12.10
2018-03-25T05:47:28.978Z,12.40
2018-03-25T05:49:57.208Z,12.40
2018-03-25T05:52:24.678Z,12.40
2018-03-25T05:54:52.126Z,12.10
2018-03-25T05:57:19.593Z,12.10
2018-03-25T05:59:47.050Z,12.30
2018-03-25T06:02:14.509Z,12.30
2018-03-25T06:04:41.965Z,12.40
2018-03-25T06:07:10.223Z,12.10
2018-03-25T06:09:37.645Z,12.00
2018-03-25T06:12:05.101Z,12.00
2018-03-25T06:14:32.566Z,12.10
2018-03-25T06:17:00.048Z,12.20
2018-03-25T06:19:27.516Z,12.10
2018-03-25T06:21:54.989Z,11.90
2018-03-25T06:24:22.442Z,11.90
2018-03-25T06:26:49.931Z,11.90
2018-03-25T06:29:17.377Z,11.70
2018-03-25T06:31:44.825Z,11.70
2018-03-25T06:34:12.286Z,11.60
2018-03-25T06:36:39.736Z,11.60
2018-03-25T06:39:07.195Z,11.60
2018-03-25T06:41:34.650Z,11.50
2018-03-25T06:44:02.872Z,11.60
2018-03-25T06:46:30.327Z,11.60
2018-03-25T06:48:57.793Z,11.80
2018-03-25T06:51:25.242Z,12.50
2018-03-25T06:53:52.713Z,12.70
2018-03-25T06:56:20.182Z,12.30
2018-03-25T06:58:47.646Z,11.90
2018-03-25T07:01:15.106Z,11.80
2018-03-25T07:03:42.575Z,12.00
2018-03-25T07:06:10.041Z,11.90
2018-03-25T07:08:37.564Z,11.90
2018-03-25T07:11:04.998Z,11.70
2018-03-25T07:13:33.209Z,11.80
2018-03-25T07:16:00.679Z,11.80
2018-03-25T07:18:28.150Z,11.70
2018-03-25T07:20:55.606Z,11.80
2018-03-25T07:23:23.073Z,11.80
2018-03-25T07:25:50.532Z,11.70
2018-03-25T07:28:17.981Z,11.80
2018-03-25T07:30:45.438Z,12.00
2018-03-25T07:33:13.689Z,11.90
2018-03-25T07:35:41.146Z,11.90
2018-03-25T07:38:08.606Z,12.20
2018-03-25T07:40:36.069Z,12.40
2018-03-25T07:43:03.533Z,12.40
2018-03-25T07:45:30.998Z,12.10
2018-03-25T07:47:58.441Z,12.30
2018-03-25T07:50:25.897Z,12.50
2018-03-25T07:52:53.361Z,12.30
2018-03-25T07:55:20.823Z,12.40
2018-03-25T07:57:48.268Z,12.60
2018-03-25T08:00:15.726Z,12.60
2018-03-25T08:02:43.185Z,12.50
2018-03-25T08:05:10.645Z,12.50
2018-03-25T08:07:38.111Z,12.70
2018-03-25T08:10:05.575Z,12.70
2018-03-25T08:12:33.022Z,12.50
2018-03-25T08:15:00.486Z,12.60
2018-03-25T08:17:27.937Z,12.80
2018-03-25T08:19:56.957Z,12.40
2018-03-25T08:22:24.429Z,12.40
2018-03-25T08:24:51.885Z,12.30
2018-03-25T08:27:19.369Z,12.40
2018-03-25T08:29:46.828Z,12.30
2018-03-25T08:32:14.304Z,12.40
2018-03-25T08:34:41.768Z,12.60
2018-03-25T08:37:09.224Z,12.50
2018-03-25T08:39:36.683Z,12.40
2018-03-25T08:42:04.146Z,12.40
2018-03-25T08:44:31.605Z,12.30
2018-03-25T08:46:59.061Z,12.80
2018-03-25T08:49:26.552Z,12.70
2018-03-25T08:51:54.772Z,13.00
2018-03-25T08:54:22.240Z,12.90
2018-03-25T08:56:49.705Z,12.80
2018-03-25T08:59:17.154Z,12.80
2018-03-25T09:01:44.615Z,12.60
2018-03-25T09:04:12.076Z,12.70
2018-03-25T09:06:39.534Z,12.80
2018-03-25T09:09:06.989Z,12.90
2018-03-25T09:11:34.445Z,12.80
2018-03-25T09:14:01.902Z,12.70
2018-03-25T09:16:29.362Z,12.70
2018-03-25T09:18:56.819Z,12.90
2018-03-25T09:21:24.316Z,12.90
2018-03-25T09:23:52.556Z,13.40
2018-03-25T09:26:20.017Z,13.40
2018-03-25T09:28:47.481Z,13.40
2018-03-25T09:31:14.985Z,13.30
2018-03-25T09:33:43.206Z,13.50
2018-03-25T09:36:10.674Z,13.50
2018-03-25T09:38:38.134Z,13.50
2018-03-25T09:41:05.603Z,13.40
2018-03-25T09:43:33.041Z,13.70
2018-03-25T09:46:00.506Z,13.60
2018-03-25T09:48:27.953Z,13.50
2018-03-25T09:50:55.413Z,13.40
2018-03-25T09:53:23.633Z,13.70
2018-03-25T09:55:51.092Z,13.70
2018-03-25T09:58:18.553Z,13.70
2018-03-25T10:00:48.589Z,13.80
2018-03-25T10:06:14.853Z,14.10
2018-03-25T10:08:42.627Z,13.80
2018-03-25T10:11:10.181Z,13.80
2018-03-25T10:13:37.642Z,13.80
2018-03-25T10:16:05.101Z,14.00
2018-03-25T10:18:32.682Z,13.90
2018-03-25T10:21:00.232Z,13.90
2018-03-25T10:23:27.689Z,13.90
2018-03-25T10:25:55.141Z,14.00
2018-03-25T10:28:22.629Z,14.20
2018-03-25T10:30:50.845Z,14.10
2018-03-25T10:33:18.313Z,14.10
2018-03-25T10:35:46.529Z,14.00
2018-03-25T10:38:14.007Z,14.00
2018-03-25T10:40:41.504Z,13.90
2018-03-25T10:46:20.706Z,13.90
2018-03-25T10:48:48.942Z,14.00
2018-03-25T10:51:16.397Z,14.00
2018-03-25T10:53:44.104Z,14.40
2018-03-25T10:56:12.321Z,14.10
2018-03-25T10:58:39.782Z,14.00
2018-03-25T11:01:07.235Z,14.00
2018-03-25T11:03:34.697Z,14.00
2018-03-25T11:06:02.143Z,14.00
2018-03-25T11:08:29.624Z,14.20
2018-03-25T11:10:57.069Z,14.20
2018-03-25T11:13:24.530Z,14.10
2018-03-25T11:15:51.981Z,14.20
2018-03-25T11:18:19.452Z,14.50
2018-03-25T11:20:46.902Z,14.50
2018-03-25T11:23:14.362Z,14.60
2018-03-25T11:25:42.590Z,14.50
2018-03-25T11:28:10.819Z,14.60
2018-03-25T11:30:38.272Z,14.60
2018-03-25T11:33:05.730Z,14.40
2018-03-25T11:35:33.202Z,14.50
2018-03-25T11:38:00.666Z,14.50
2018-03-25T11:40:28.126Z,14.40
2018-03-25T11:42:55.605Z,14.90
2018-03-25T11:45:23.838Z,15.10
2018-03-25T11:47:51.289Z,15.10
2018-03-25T11:50:18.744Z,15.30
2018-03-25T11:52:46.197Z,15.00
2018-03-25T11:55:13.657Z,14.80
2018-03-25T11:57:41.125Z,15.00
2018-03-25T12:00:08.590Z,15.30
2018-03-25T12:02:36.049Z,15.10
2018-03-25T12:05:03.497Z,15.10
2018-03-25T12:07:30.954Z,14.90
2018-03-25T12:09:58.414Z,14.90
2018-03-25T12:12:25.866Z,14.90
2018-03-25T12:14:53.352Z,15.20
2018-03-25T12:17:20.786Z,15.30
2018-03-25T12:19:48.249Z,15.10
2018-03-25T12:22:15.717Z,15.20
2018-03-25T12:24:43.185Z,15.40
2018-03-25T12:27:10.676Z,15.40
2018-03-25T12:29:38.225Z,15.20
2018-03-25T12:32:06.450Z,15.20
2018-03-25T12:34:33.912Z,15.20
2018-03-25T12:37:02.142Z,15.50
2018-03-25T12:39:30.361Z,15.70
2018-03-25T12:41:57.817Z,15.60
2018-03-25T12:44:25.279Z,15.70
2018-03-25T12:46:52.723Z,15.50
2018-03-25T12:49:20.198Z,15.60
2018-03-25T12:54:38.026Z,15.50
2018-03-25T12:57:05.566Z,15.30
2018-03-25T12:59:33.068Z,15.30
2018-03-25T13:02:00.531Z,15.30
2018-03-25T13:04:28.007Z,15.20
2018-03-25T13:06:55.659Z,15.10
2018-03-25T13:09:23.097Z,15.20
2018-03-25T13:11:50.607Z,15.40
2018-03-25T13:14:18.338Z,15.40
2018-03-25T13:16:46.618Z,15.40
2018-03-25T13:19:14.076Z,15.40
2018-03-25T13:24:32.609Z,15.40
2018-03-25T13:27:00.074Z,15.30
2018-03-25T13:29:27.596Z,15.20
2018-03-25T13:31:55.070Z,15.20
2018-03-25T13:34:22.514Z,15.20
2018-03-25T13:36:50.046Z,15.30
2018-03-25T13:39:18.329Z,15.30
2018-03-25T13:41:46.562Z,15.40
2018-03-25T13:44:14.777Z,15.40
2018-03-25T13:46:42.997Z,15.40
2018-03-25T13:49:10.454Z,15.40
2018-03-25T13:51:38.721Z,15.50
2018-03-25T13:54:06.541Z,15.50
2018-03-25T13:56:33.962Z,15.50
2018-03-25T13:59:01.444Z,15.40
2018-03-25T14:01:28.920Z,15.40
2018-03-25T14:03:56.365Z,15.50
2018-03-25T14:06:23.839Z,15.60
2018-03-25T14:08:52.062Z,15.60
2018-03-25T14:11:19.521Z,15.70
2018-03-25T14:13:46.977Z,15.70
2018-03-25T14:16:14.444Z,15.70
2018-03-25T14:18:41.893Z,15.70
2018-03-25T14:21:09.362Z,15.70
2018-03-25T14:23:36.813Z,15.60
2018-03-25T14:29:03.403Z,15.70
2018-03-25T14:31:30.965Z,15.70
2018-03-25T14:36:48.882Z,15.50
2018-03-25T14:39:16.338Z,15.60
2018-03-25T14:41:43.824Z,15.90
2018-03-25T14:44:11.289Z,16.10
2018-03-25T14:46:38.766Z,16.00
2018-03-25T14:49:06.214Z,16.10
2018-03-25T14:51:34.450Z,16.60
2018-03-25T14:54:01.923Z,16.60
2018-03-25T14:56:29.406Z,16.60
2018-03-25T14:58:56.841Z,16.50
2018-03-25T15:01:24.305Z,16.60
2018-03-25T15:06:42.305Z,16.20
2018-03-25T15:09:09.773Z,16.30
2018-03-25T15:11:37.243Z,16.40
2018-03-25T15:14:04.710Z,17.20
2018-03-25T15:16:32.167Z,16.70
2018-03-25T15:18:59.648Z,16.20
2018-03-25T15:21:27.753Z,15.90
2018-03-25T15:23:55.990Z,15.60
2018-03-25T15:26:23.442Z,15.60
2018-03-25T15:28:51.857Z,15.70
2018-03-25T15:31:20.265Z,15.50
2018-03-25T15:33:47.733Z,15.40
2018-03-25T15:36:15.190Z,15.40
2018-03-25T15:38:42.652Z,15.20
2018-03-25T15:41:10.109Z,15.20
2018-03-25T15:43:37.645Z,15.10
2018-03-25T15:46:05.088Z,15.00
2018-03-25T15:48:32.549Z,14.90
2018-03-25T15:51:00.042Z,14.90
2018-03-25T15:53:27.469Z,15.30
2018-03-25T15:55:55.698Z,15.10
2018-03-25T15:58:23.164Z,15.10
2018-03-25T16:00:51.386Z,15.30
2018-03-25T16:03:18.930Z,15.30
2018-03-25T16:05:47.187Z,15.20
2018-03-25T16:08:14.642Z,15.20
2018-03-25T16:10:42.169Z,14.90
2018-03-25T16:13:09.646Z,14.80
2018-03-25T16:15:37.100Z,14.70
2018-03-25T16:18:04.577Z,14.70
2018-03-25T16:20:32.034Z,14.60
2018-03-25T16:22:59.494Z,14.70
2018-03-25T16:25:27.722Z,14.60
2018-03-25T16:27:55.184Z,14.50
2018-03-25T16:30:22.653Z,14.50
2018-03-25T16:32:50.099Z,14.50
2018-03-25T16:35:17.558Z,14.50
2018-03-25T16:37:45.001Z,14.50
2018-03-25T16:40:12.462Z,14.30
2018-03-25T16:42:39.919Z,14.30
2018-03-25T16:45:07.403Z,14.30
2018-03-25T16:47:36.958Z,14.10
2018-03-25T16:50:04.449Z,14.20
2018-03-25T16:52:31.911Z,14.20
2018-03-25T16:54:59.432Z,14.40
2018-03-25T16:57:27.615Z,14.50
2018-03-25T16:59:55.098Z,14.50
2018-03-25T17:02:22.565Z,14.10
2018-03-25T17:04:50.113Z,14.10
2018-03-25T17:07:18.306Z,14.00
2018-03-25T17:09:45.787Z,14.00
2018-03-25T17:12:13.254Z,14.00
2018-03-25T17:14:41.515Z,13.80
2018-03-25T17:17:09.007Z,13.80
2018-03-25T17:19:36.463Z,14.10
2018-03-25T17:22:03.939Z,14.80
2018-03-25T17:24:31.410Z,15.10
2018-03-25T17:26:58.890Z,15.30
2018-03-25T17:29:26.346Z,15.10
2018-03-25T17:31:53.818Z,15.20
2018-03-25T17:34:21.282Z,15.10
2018-03-25T17:36:48.794Z,15.30
2018-03-25T17:39:16.308Z,15.40
2018-03-25T17:41:44.560Z,15.60
2018-03-25T17:44:12.792Z,15.70
2018-03-25T17:46:40.268Z,15.70
2018-03-25T17:49:07.724Z,15.70
2018-03-25T17:51:35.210Z,15.60
2018-03-25T17:54:02.685Z,15.20
2018-03-25T17:56:30.161Z,15.00
2018-03-25T17:58:58.402Z,14.30
2018-03-25T18:07:08.599Z,14.10
2018-03-25T18:09:36.070Z,14.00
2018-03-25T18:12:03.782Z,13.80
2018-03-25T18:14:31.291Z,13.60
2018-03-25T18:16:58.759Z,13.60
2018-03-25T18:19:27.000Z,13.60
2018-03-25T18:21:54.487Z,13.60
2018-03-25T18:24:21.989Z,13.50
2018-03-25T18:26:49.501Z,13.40
2018-03-25T18:29:17.755Z,13.10
2018-03-25T18:31:45.274Z,13.10
2018-03-25T18:34:12.771Z,13.10
2018-03-25T18:36:40.366Z,13.00
2018-03-25T18:39:08.799Z,12.80
2018-03-25T18:41:36.299Z,12.80
2018-03-25T18:44:04.591Z,12.70
2018-03-25T18:46:32.830Z,12.60
2018-03-25T18:49:00.302Z,12.60
2018-03-25T18:51:27.763Z,12.50
2018-03-25T18:53:55.234Z,12.50
2018-03-25T18:56:23.524Z,12.40
2018-03-25T18:58:51.007Z,12.40
2018-03-25T19:01:18.481Z,12.50
2018-03-25T19:03:45.950Z,12.50
2018-03-25T19:06:13.431Z,12.40
2018-03-25T19:08:41.674Z,12.30
2018-03-25T19:11:09.186Z,12.30
2018-03-25T19:13:36.694Z,12.30
2018-03-25T19:16:05.146Z,12.30
2018-03-25T19:18:32.629Z,12.40
2018-03-25T19:21:00.092Z,12.40
2018-03-25T19:23:27.562Z,12.20
2018-03-25T19:25:55.049Z,12.20
2018-03-25T19:28:23.292Z,12.30
2018-03-25T19:30:50.782Z,12.30
2018-03-25T19:33:18.252Z,12.40
2018-03-25T19:35:45.750Z,12.40
2018-03-25T19:38:13.811Z,12.40
2018-03-25T19:40:41.305Z,12.30
2018-03-25T19:43:09.522Z,12.30
2018-03-25T19:45:37.012Z,12.30
2018-03-25T19:48:04.492Z,12.30
2018-03-25T19:50:31.955Z,12.30
2018-03-25T19:52:59.418Z,12.30
2018-03-25T19:55:26.889Z,12.30
2018-03-25T19:57:55.135Z,12.60
2018-03-25T20:00:22.606Z,12.50
2018-03-25T20:02:50.080Z,12.40
2018-03-25T20:05:18.337Z,12.50
2018-03-25T20:07:46.587Z,12.30
2018-03-25T20:10:14.053Z,12.30
2018-03-25T20:12:41.546Z,12.30
2018-03-25T20:15:09.796Z,12.30
2018-03-25T20:17:37.263Z,12.30
2018-03-25T20:20:04.840Z,12.30
2018-03-25T20:22:32.411Z,12.20
2018-03-25T20:24:59.831Z,12.10
2018-03-25T20:27:27.414Z,12.20
2018-03-25T20:29:55.652Z,12.20
2018-03-25T20:32:23.127Z,12.20
2018-03-25T20:34:50.608Z,12.30
2018-03-25T20:37:18.136Z,12.10
2018-03-25T20:39:45.623Z,12.10
2018-03-25T20:42:13.910Z,12.20
2018-03-25T20:44:42.176Z,12.10
2018-03-25T20:47:10.401Z,12.10
2018-03-25T20:49:37.878Z,12.20
2018-03-25T20:52:05.373Z,12.20
2018-03-25T20:54:33.626Z,12.10
2018-03-25T20:57:02.476Z,12.10
2018-03-25T20:59:30.478Z,12.30
2018-03-25T21:01:57.938Z,14.20
2018-03-25T21:04:25.414Z,14.80
2018-03-25T21:06:52.874Z,15.00
2018-03-25T21:09:21.102Z,15.10
2018-03-25T21:11:48.578Z,15.10
2018-03-25T21:14:16.075Z,15.10
2018-03-25T21:16:44.370Z,15.20
2018-03-25T21:19:12.331Z,15.20
2018-03-25T21:21:40.017Z,15.20
2018-03-25T21:24:07.505Z,15.20
2018-03-25T21:26:35.007Z,15.20
2018-03-25T21:29:02.767Z,15.20
2018-03-25T21:31:31.113Z,15.20
2018-03-25T21:33:58.589Z,15.20
2018-03-25T21:36:26.866Z,15.20
2018-03-25T21:38:55.095Z,15.20
2018-03-25T21:41:22.790Z,15.10
2018-03-25T21:43:50.694Z,15.10
2018-03-25T21:46:19.004Z,15.20
2018-03-25T21:48:46.570Z,15.10
2018-03-25T21:51:14.838Z,15.10
2018-03-25T21:53:42.313Z,15.10
2018-03-25T21:56:09.786Z,15.10
2018-03-25T21:58:38.034Z,15.10
2018-03-25T22:01:05.496Z,15.10
2018-03-25T22:03:33.034Z,15.10
2018-03-25T22:06:01.247Z,15.10
2018-03-25T22:08:28.725Z,15.00
2018-03-25T22:10:56.186Z,15.10
2018-03-25T22:13:23.709Z,15.00
2018-03-25T22:15:51.178Z,15.00
2018-03-25T22:18:19.446Z,15.00
2018-03-25T22:20:46.933Z,15.00
2018-03-25T22:23:14.390Z,14.90
2018-03-25T22:25:41.871Z,14.90
2018-03-25T22:28:10.102Z,14.90
2018-03-25T22:30:37.587Z,14.90
2018-03-25T22:33:05.821Z,14.90
2018-03-25T22:35:33.293Z,14.90
2018-03-25T22:38:00.770Z,15.00
2018-03-25T22:40:28.244Z,14.90
2018-03-25T22:42:56.506Z,14.90
2018-03-25T22:45:23.970Z,14.90
2018-03-25T22:47:52.222Z,14.90
2018-03-25T22:50:19.699Z,14.90
2018-03-25T22:52:47.178Z,14.90
2018-03-25T22:55:16.435Z,14.80
2018-03-25T22:57:43.910Z,14.80
2018-03-25T23:00:11.375Z,14.80
2018-03-25T23:02:39.626Z,14.80
2018-03-25T23:05:07.102Z,14.80
2018-03-25T23:07:34.564Z,14.80
2018-03-25T23:10:02.038Z,14.80
2018-03-25T23:12:30.290Z,14.80
2018-03-25T23:14:57.759Z,14.80
2018-03-25T23:17:26.002Z,14.80
2018-03-25T23:19:53.487Z,14.80
2018-03-25T23:22:21.739Z,14.80
2018-03-25T23:24:49.197Z,14.80
2018-03-25T23:27:16.675Z,14.80
2018-03-25T23:29:44.950Z,14.80
2018-03-25T23:32:12.425Z,14.70
2018-03-25T23:34:40.662Z,14.70
2018-03-25T23:37:08.143Z,14.70
2018-03-25T23:39:35.601Z,14.70
2018-03-25T23:42:03.066Z,14.70
2018-03-25T23:44:31.330Z,14.70
2018-03-25T23:46:58.790Z,14.70
2018-03-25T23:49:26.514Z,14.70
2018-03-25T23:51:54.894Z,14.70
2018-03-25T23:54:22.370Z,14.70
2018-03-25T23:56:49.908Z,14.70
2018-03-25T23:59:17.374Z,14.70
